Time;durP1;ratioP1;P1;durP2;ratioP2;P2;SDS_P1;SDS_P2;PMS_P1;PMS_P2;Temp;Humidity;BMP_temperature;BMP_pressure;BME280_temperature;BME280_humidity;BME280_pressure;Samples;Min_cycle;Max_cycle;Signal;HPM_P1;HPM_P2
2021/04/21 00:01:42;;;;;;;12.02;7.05;;;12.10;99.90;;;;;;5052113;28;20476;-48
2021/04/21 00:04:09;;;;;;;12.50;7.40;;;12.10;99.90;;;;;;5053717;28;20025;-48
2021/04/21 00:06:37;;;;;;;11.60;6.90;;;12.10;99.90;;;;;;5052097;28;20098;-49
2021/04/21 00:09:06;;;;;;;11.80;7.25;;;12.10;99.90;;;;;;5053460;28;20040;-50
2021/04/21 00:11:34;;;;;;;13.90;8.02;;;12.20;99.90;;;;;;5053785;28;20025;-49
2021/04/21 00:14:00;;;;;;;13.02;7.50;;;12.20;99.90;;;;;;5051728;28;20116;-50
2021/04/21 00:16:28;;;;;;;16.33;8.75;;;12.20;99.90;;;;;;5053574;28;20028;-51
2021/04/21 00:18:55;;;;;;;12.93;7.78;;;12.20;99.90;;;;;;5053532;28;20049;-50
2021/04/21 00:21:23;;;;;;;11.95;6.97;;;12.20;99.90;;;;;;5053534;28;20021;-49
2021/04/21 00:23:51;;;;;;;10.38;6.07;;;12.20;99.90;;;;;;5053278;28;20540;-50
2021/04/21 00:26:19;;;;;;;8.05;5.63;;;12.20;99.90;;;;;;5053498;28;20033;-50
2021/04/21 00:28:46;;;;;;;10.80;5.68;;;12.20;99.90;;;;;;5053118;28;20610;-49
2021/04/21 00:31:14;;;;;;;9.77;6.47;;;12.20;99.90;;;;;;5051372;28;20037;-46
2021/04/21 00:33:42;;;;;;;10.40;6.30;;;12.20;99.90;;;;;;5051414;28;20110;-51
2021/04/21 00:36:13;;;;;;;9.40;6.13;;;12.30;99.90;;;;;;5053488;28;20392;-50
2021/04/21 00:38:40;;;;;;;9.90;5.80;;;12.30;99.90;;;;;;5051192;28;20049;-50
2021/04/21 00:41:21;;;;;;;8.55;5.30;;;12.30;99.90;;;;;;5053065;28;20033;-50
2021/04/21 00:44:13;;;;;;;8.50;5.43;;;12.20;99.90;;;;;;5055054;28;20086;-47
2021/04/21 00:46:44;;;;;;;9.73;5.18;;;12.30;99.90;;;;;;4956737;29;20031;-48
2021/04/21 00:49:17;;;;;;;10.43;5.93;;;12.30;99.90;;;;;;4957030;29;20043;-49
2021/04/21 00:52:05;;;;;;;7.43;5.00;;;12.30;99.90;;;;;;4956876;29;20092;-46
2021/04/21 00:54:45;;;;;;;8.57;5.68;;;12.30;99.90;;;;;;4956852;29;20368;-49
2021/04/21 00:57:13;;;;;;;7.07;4.80;;;12.30;99.90;;;;;;4957414;29;20031;-48
2021/04/21 01:00:07;;;;;;;9.98;5.22;;;12.20;99.90;;;;;;4956893;29;20062;-48
2021/04/21 01:02:40;;;;;;;7.97;5.25;;;12.20;99.90;;;;;;4924804;29;20031;-50
2021/04/21 01:05:14;;;;;;;9.50;4.43;;;12.30;99.90;;;;;;4954332;29;20091;-50
2021/04/21 01:07:44;;;;;;;7.82;5.07;;;12.30;99.90;;;;;;4924698;29;20130;-52
2021/04/21 01:10:13;;;;;;;8.80;5.47;;;12.30;99.90;;;;;;4957052;29;20039;-50
2021/04/21 01:12:40;;;;;;;8.98;5.30;;;12.30;99.90;;;;;;4925322;29;20043;-46
2021/04/21 01:15:10;;;;;;;7.88;4.93;;;12.30;99.90;;;;;;4956473;28;20031;-50
2021/04/21 01:17:40;;;;;;;9.15;5.50;;;12.30;99.90;;;;;;4934045;29;20032;-48
2021/04/21 01:20:26;;;;;;;9.38;5.28;;;12.30;99.90;;;;;;4918437;29;20068;-49
2021/04/21 01:23:15;;;;;;;8.30;5.18;;;12.20;99.90;;;;;;4918417;28;20543;-49
2021/04/21 01:26:02;;;;;;;8.25;5.28;;;12.20;99.90;;;;;;4995143;28;20029;-49
2021/04/21 01:28:30;;;;;;;8.25;5.38;;;12.20;99.90;;;;;;4995562;28;20347;-48
2021/04/21 01:30:59;;;;;;;9.20;5.93;;;12.10;99.90;;;;;;4995042;28;20026;-50
2021/04/21 01:33:26;;;;;;;9.13;5.85;;;12.10;99.90;;;;;;4995022;28;20038;-48
2021/04/21 01:36:06;;;;;;;8.27;5.35;;;12.20;99.90;;;;;;4994874;28;20125;-48
2021/04/21 01:38:33;;;;;;;8.23;4.95;;;11.90;99.90;;;;;;5012141;28;20089;-48
2021/04/21 01:41:06;;;;;;;8.38;5.55;;;11.90;99.90;;;;;;5014773;28;20414;-50
2021/04/21 01:43:53;;;;;;;10.10;5.55;;;11.90;99.90;;;;;;5014289;28;20076;-49
2021/04/21 01:46:21;;;;;;;9.05;4.88;;;11.90;99.90;;;;;;4998035;28;20060;-50
2021/04/21 01:48:50;;;;;;;8.20;5.25;;;11.90;99.90;;;;;;5050513;28;20076;-46
2021/04/21 01:51:26;;;;;;;10.45;5.60;;;12.00;99.90;;;;;;5076245;28;20027;-48
2021/04/21 01:54:20;;;;;;;9.13;5.82;;;12.00;99.90;;;;;;5075974;28;20444;-46
2021/04/21 01:56:51;;;;;;;10.55;5.50;;;12.10;99.90;;;;;;5070347;28;20063;-47
2021/04/21 01:59:40;;;;;;;9.77;5.25;;;12.10;99.90;;;;;;5076222;28;20119;-46
2021/04/21 02:02:24;;;;;;;8.60;4.97;;;12.00;99.90;;;;;;5076174;28;20044;-47
2021/04/21 02:05:12;;;;;;;8.93;5.35;;;11.80;99.90;;;;;;5024128;28;20083;-50
2021/04/21 02:07:45;;;;;;;9.43;5.07;;;11.60;99.90;;;;;;5075970;28;20024;-51
2021/04/21 02:10:46;;;;;;;8.70;5.45;;;11.50;99.90;;;;;;5075430;28;20085;-46
2021/04/21 02:13:55;;;;;;;8.18;5.55;;;11.60;99.90;;;;;;5075859;28;20387;-49
2021/04/21 02:16:42;;;;;;;8.77;5.75;;;11.70;99.90;;;;;;5075977;28;20028;-49
2021/04/21 02:19:31;;;;;;;9.30;5.30;;;11.70;99.90;;;;;;5075913;28;20024;-49
2021/04/21 02:22:22;;;;;;;8.70;5.63;;;11.70;99.90;;;;;;5075378;28;20090;-46
2021/04/21 02:25:04;;;;;;;10.02;5.25;;;11.60;99.90;;;;;;5075321;28;20029;-49
2021/04/21 02:27:41;;;;;;;;;;;11.60;99.90;;;;;;5075761;28;20028;-50
2021/04/21 02:30:13;;;;;;;8.38;5.55;;;11.60;99.90;;;;;;5075652;28;20255;-47
2021/04/21 02:33:03;;;;;;;10.00;5.27;;;11.60;99.90;;;;;;5075323;28;20021;-49
2021/04/21 02:35:41;;;;;;;7.13;4.32;;;11.60;99.90;;;;;;5075273;28;20265;-49
2021/04/21 02:38:24;;;;;;;7.82;4.82;;;11.70;99.90;;;;;;5020257;28;20561;-47
2021/04/21 02:41:09;;;;;;;10.02;5.38;;;11.70;99.90;;;;;;5055019;28;20420;-47
2021/04/21 02:44:01;;;;;;;8.85;5.32;;;11.70;99.90;;;;;;5055260;28;20064;-49
2021/04/21 02:46:40;;;;;;;10.05;5.38;;;11.70;99.90;;;;;;5055010;28;20016;-47
2021/04/21 02:49:22;;;;;;;9.57;5.40;;;11.60;99.90;;;;;;5055302;28;20041;-50
2021/04/21 02:52:04;;;;;;;10.63;5.63;;;11.60;99.90;;;;;;5055152;28;20082;-49
2021/04/21 02:54:49;;;;;;;;;;;11.60;99.90;;;;;;5003913;28;20056;-48
2021/04/21 02:57:54;;;;;;;9.18;5.25;;;11.50;99.90;;;;;;5019952;28;19908;-50
2021/04/21 03:00:36;;;;;;;8.77;5.50;;;11.50;99.90;;;;;;5055128;28;20029;-48
2021/04/21 03:03:13;;;;;;;8.63;5.32;;;11.50;99.90;;;;;;5054887;28;20484;-47
2021/04/21 03:05:47;;;;;;;8.50;5.00;;;11.50;99.90;;;;;;5054778;28;20025;-48
2021/04/21 03:08:36;;;;;;;9.13;6.10;;;11.60;99.90;;;;;;5035894;28;20036;-50
2021/04/21 03:11:21;;;;;;;9.32;5.45;;;11.60;99.90;;;;;;5024981;28;20052;-53
2021/04/21 03:14:05;;;;;;;9.50;5.75;;;11.60;99.90;;;;;;5045938;28;20060;-50
2021/04/21 03:16:41;;;;;;;9.45;5.55;;;11.60;99.90;;;;;;5044836;28;20059;-51
2021/04/21 03:19:10;;;;;;;12.13;5.78;;;11.60;99.90;;;;;;5005892;28;20038;-49
2021/04/21 03:21:39;;;;;;;8.52;5.85;;;11.60;99.90;;;;;;5034680;28;20034;-50
2021/04/21 03:24:12;;;;;;;8.55;5.13;;;11.60;99.90;;;;;;5001323;28;20052;-47
2021/04/21 03:26:40;;;;;;;8.23;5.13;;;11.60;99.90;;;;;;4999595;28;20048;-50
2021/04/21 03:29:12;;;;;;;9.00;5.30;;;11.60;99.90;;;;;;5034522;28;20029;-49
2021/04/21 03:31:41;;;;;;;8.07;5.65;;;11.60;99.90;;;;;;5034500;28;20025;-52
2021/04/21 03:34:12;;;;;;;7.75;4.95;;;11.60;99.90;;;;;;5033938;28;20100;-49
2021/04/21 03:36:39;;;;;;;7.13;5.25;;;11.60;99.90;;;;;;5035993;28;20034;-50
2021/04/21 03:39:05;;;;;;;9.82;5.65;;;11.60;99.90;;;;;;5053936;28;20033;-48
2021/04/21 03:41:31;;;;;;;11.52;5.80;;;11.70;99.90;;;;;;5035188;28;20476;-49
2021/04/21 03:43:58;;;;;;;8.70;5.40;;;11.70;99.90;;;;;;5053780;28;20040;-48
2021/04/21 03:46:24;;;;;;;8.77;5.22;;;11.70;99.90;;;;;;5053782;28;20090;-50
2021/04/21 03:48:51;;;;;;;8.45;5.63;;;11.70;99.90;;;;;;5054025;28;20479;-48
2021/04/21 03:51:19;;;;;;;9.20;5.18;;;11.70;99.90;;;;;;5054141;28;20483;-48
2021/04/21 03:53:48;;;;;;;8.15;5.28;;;11.60;99.90;;;;;;5053993;28;20021;-47
2021/04/21 03:56:22;;;;;;;11.68;5.88;;;11.60;99.90;;;;;;5018771;28;20122;-50
2021/04/21 03:58:51;;;;;;;9.00;5.25;;;11.60;99.90;;;;;;5053847;28;20017;-46
2021/04/21 04:01:21;;;;;;;10.85;6.00;;;11.60;99.90;;;;;;5053977;28;20090;-48
2021/04/21 04:03:54;;;;;;;7.63;4.82;;;11.70;99.90;;;;;;5018711;28;20037;-50
2021/04/21 04:06:33;;;;;;;9.18;5.47;;;11.80;99.90;;;;;;5054007;28;20424;-49
2021/04/21 04:09:05;;;;;;;10.13;6.13;;;11.80;99.90;;;;;;5053296;28;20044;-47
2021/04/21 04:11:38;;;;;;;9.93;5.43;;;11.90;99.90;;;;;;5053497;28;20167;-51
2021/04/21 04:14:21;;;;;;;9.05;5.72;;;11.90;99.90;;;;;;5053472;28;20032;-50
2021/04/21 04:16:51;;;;;;;12.02;6.10;;;12.00;99.90;;;;;;5053435;28;20415;-49
2021/04/21 04:19:18;;;;;;;9.73;6.00;;;12.00;99.90;;;;;;5053055;28;20029;-48
2021/04/21 04:21:51;;;;;;;9.40;5.50;;;12.00;99.90;;;;;;5018278;28;20048;-50
2021/04/21 04:24:21;;;;;;;7.18;5.20;;;12.00;99.90;;;;;;5053245;28;20060;-51
2021/04/21 04:26:48;;;;;;;9.15;6.03;;;12.00;99.90;;;;;;5053151;28;20029;-48
2021/04/21 04:29:14;;;;;;;10.93;5.70;;;12.00;99.90;;;;;;5053592;28;20067;-47
2021/04/21 04:35:02;;;;;;;8.88;5.82;;;12.00;99.90;;;;;;5033700;28;20037;-50
2021/04/21 04:41:16;;;;;;;11.68;6.30;;;12.10;99.90;;;;;;5033653;28;20101;-46
2021/04/21 04:47:05;;;;;;;12.55;5.88;;;12.20;99.90;;;;;;5033366;28;20529;-49
2021/04/21 04:52:54;;;;;;;14.05;6.40;;;;;;;;;;5033962;28;20040;-46
2021/04/21 04:59:08;;;;;;;14.70;6.97;;;12.40;99.90;;;;;;5038954;28;20044;-51
2021/04/21 05:02:00;;;;;;;17.58;12.65;;;12.40;99.90;;;;;;5042016;28;20081;-50
2021/04/21 05:04:46;;;;;;;11.77;7.40;;;12.40;99.90;;;;;;4988039;28;20405;-49
2021/04/21 05:07:14;;;;;;;10.07;6.35;;;12.50;99.90;;;;;;4988949;28;20038;-50
2021/04/21 05:09:44;;;;;;;10.10;5.55;;;12.50;99.90;;;;;;4990559;28;20046;-51
2021/04/21 05:12:12;;;;;;;12.10;7.60;;;12.60;99.90;;;;;;4938542;28;20101;-50
2021/04/21 05:14:42;;;;;;;14.07;8.60;;;12.70;99.90;;;;;;4971147;28;20039;-52
2021/04/21 05:17:32;;;;;;;13.75;7.03;;;12.70;99.90;;;;;;4968211;28;20046;-49
2021/04/21 05:20:06;;;;;;;12.57;6.20;;;12.80;99.90;;;;;;4970274;28;20046;-49
2021/04/21 05:22:35;;;;;;;9.57;6.25;;;12.80;99.90;;;;;;4969933;28;20051;-51
2021/04/21 05:25:37;;;;;;;11.18;7.65;;;12.80;99.90;;;;;;4939972;28;20050;-49
2021/04/21 05:28:44;;;;;;;10.88;6.43;;;12.90;99.90;;;;;;4971950;28;20062;-50
2021/04/21 05:31:28;;;;;;;10.85;5.80;;;12.90;99.90;;;;;;4973769;28;20042;-49
2021/04/21 05:34:08;;;;;;;11.07;6.40;;;13.00;99.90;;;;;;4975540;28;20137;-53
2021/04/21 05:37:37;;;;;;;13.70;6.53;;;13.10;99.90;;;;;;5012617;28;20042;-50
2021/04/21 05:40:37;;;;;;;15.63;6.28;;;13.20;99.90;;;;;;4956033;29;20039;-46
2021/04/21 05:43:22;;;;;;;15.75;6.90;;;13.20;99.90;;;;;;4964817;28;20053;-50
2021/04/21 05:46:34;;;;;;;10.35;5.82;;;13.10;99.90;;;;;;4974112;28;20046;-48
2021/04/21 05:49:08;;;;;;;10.90;6.15;;;13.10;99.90;;;;;;4958816;28;20055;-51
2021/04/21 05:52:10;;;;;;;15.73;6.57;;;13.30;99.90;;;;;;4975303;28;20173;-48
2021/04/21 05:54:56;;;;;;;17.65;11.32;;;13.30;99.90;;;;;;4975192;28;20077;-48
2021/04/21 05:57:27;;;;;;;12.43;7.20;;;13.40;99.90;;;;;;4963792;28;20050;-48
2021/04/21 06:00:06;;;;;;;13.90;7.80;;;13.30;99.90;;;;;;4956032;28;20039;-50
2021/04/21 06:02:34;;;;;;;14.70;7.53;;;13.30;99.90;;;;;;4955525;29;20118;-48
2021/04/21 06:05:05;;;;;;;14.13;7.38;;;;;;;;;;4955682;28;20091;-51
2021/04/21 06:07:30;;;;;;;13.32;6.25;;;13.60;99.90;;;;;;4911495;28;20178;-51
2021/04/21 06:09:56;;;;;;;14.68;8.00;;;13.80;99.90;;;;;;4955408;29;20122;-52
2021/04/21 06:12:24;;;;;;;11.35;6.28;;;13.90;99.90;;;;;;4923583;29;20102;-51
2021/04/21 06:14:55;;;;;;;13.90;5.70;;;14.10;99.90;;;;;;4976898;28;20079;-49
2021/04/21 06:17:25;;;;;;;13.90;6.20;;;14.20;99.90;;;;;;5036204;28;20037;-50
2021/04/21 06:19:51;;;;;;;9.43;5.13;;;14.40;99.90;;;;;;5035651;28;20461;-47
2021/04/21 06:22:28;;;;;;;7.68;4.80;;;14.40;99.90;;;;;;5035562;28;20029;-51
2021/04/21 06:25:08;;;;;;;10.93;6.28;;;14.40;99.90;;;;;;5035710;28;20033;-48
2021/04/21 06:27:34;;;;;;;7.65;5.32;;;14.50;99.90;;;;;;5035318;28;20042;-49
2021/04/21 06:30:05;;;;;;;10.63;5.85;;;14.50;99.90;;;;;;5032968;28;20025;-52
2021/04/21 06:32:31;;;;;;;10.40;5.88;;;14.60;99.90;;;;;;5012167;28;20392;-54
2021/04/21 06:35:08;;;;;;;10.57;5.70;;;14.80;99.90;;;;;;4967909;28;20037;-53
2021/04/21 06:37:35;;;;;;;9.18;5.80;;;14.80;99.90;;;;;;5016651;28;20124;-49
2021/04/21 06:40:04;;;;;;;15.07;6.72;;;15.20;99.90;;;;;;5038399;28;20077;-49
2021/04/21 06:42:30;;;;;;;11.20;5.72;;;15.10;99.90;;;;;;5008543;28;20073;-52
2021/04/21 06:44:56;;;;;;;12.10;6.32;;;15.10;99.90;;;;;;5038703;28;20087;-54
2021/04/21 06:47:27;;;;;;;9.23;6.22;;;15.20;99.90;;;;;;5016590;28;20412;-52
2021/04/21 06:50:05;;;;;;;10.95;5.47;;;15.00;99.90;;;;;;5035345;28;20107;-52
2021/04/21 06:52:44;;;;;;;8.23;5.13;;;15.00;99.90;;;;;;5034814;28;20427;-51
2021/04/21 06:55:17;;;;;;;7.32;4.38;;;14.70;99.90;;;;;;5035269;28;20033;-49
2021/04/21 06:57:43;;;;;;;6.28;4.13;;;;;;;;;;5045006;28;20029;-50
2021/04/21 07:00:15;;;;;;;6.20;4.53;;;14.20;99.90;;;;;;5043998;28;20033;-52
2021/04/21 07:02:45;;;;;;;7.63;3.80;;;14.40;99.90;;;;;;5008635;28;20037;-53
2021/04/21 07:05:39;;;;;;;6.15;4.20;;;14.30;99.90;;;;;;5041421;28;20032;-53
2021/04/21 07:08:38;;;;;;;8.50;4.32;;;14.00;99.90;;;;;;5040184;28;20041;-50
2021/04/21 07:11:07;;;;;;;11.00;5.28;;;14.10;99.90;;;;;;4973489;28;20129;-47
2021/04/21 07:13:35;;;;;;;7.03;4.88;;;14.00;99.90;;;;;;4942146;28;20039;-51
2021/04/21 07:16:04;;;;;;;6.47;3.88;;;14.00;99.90;;;;;;4973030;28;20042;-48
2021/04/21 07:18:35;;;;;;;6.72;4.18;;;14.00;99.90;;;;;;4924991;28;20097;-49
2021/04/21 07:21:04;;;;;;;6.97;4.28;;;13.90;99.90;;;;;;4973595;28;20047;-50
2021/04/21 07:23:32;;;;;;;7.03;4.35;;;14.00;99.90;;;;;;4973121;28;20045;-49
2021/04/21 07:25:58;;;;;;;7.53;5.03;;;13.90;99.90;;;;;;4973652;28;20038;-51
2021/04/21 07:28:24;;;;;;;8.48;4.47;;;14.10;99.90;;;;;;4973063;28;20057;-50
2021/04/21 07:30:52;;;;;;;5.20;3.42;;;14.00;99.90;;;;;;4972969;28;20023;-49
2021/04/21 07:33:38;;;;;;;8.18;4.35;;;14.10;99.90;;;;;;4973092;28;20054;-54
2021/04/21 07:36:13;;;;;;;7.35;4.40;;;14.30;99.90;;;;;;4973093;28;20035;-49
2021/04/21 07:38:45;;;;;;;6.55;4.57;;;14.20;99.90;;;;;;4973137;28;20127;-50
2021/04/21 07:41:13;;;;;;;7.75;4.80;;;14.10;99.90;;;;;;4940765;28;20046;-51
2021/04/21 07:43:46;;;;;;;6.70;4.53;;;14.30;99.90;;;;;;4973176;28;20039;-53
2021/04/21 07:46:21;;;;;;;10.25;5.28;;;14.60;99.90;;;;;;4973744;28;20042;-53
2021/04/21 07:48:48;;;;;;;9.25;5.03;;;14.90;99.90;;;;;;5033783;28;20056;-48
2021/04/21 07:51:26;;;;;;;8.55;4.53;;;15.10;99.90;;;;;;5033989;28;20029;-48
2021/04/21 07:54:07;;;;;;;7.85;4.82;;;;;;;;;;5033456;28;20033;-51
2021/04/21 07:57:02;;;;;;;6.18;4.50;;;15.50;99.90;;;;;;5033825;28;20029;-50
2021/04/21 07:59:33;;;;;;;7.15;4.50;;;15.50;99.90;;;;;;5015291;28;20049;-49
2021/04/21 08:02:08;;;;;;;5.63;3.70;;;;;;;;;;5033787;28;20538;-49
2021/04/21 08:04:48;;;;;;;6.30;3.42;;;15.90;99.90;;;;;;5034124;28;20108;-51
2021/04/21 08:07:35;;;;;;;10.07;3.70;;;16.00;99.90;;;;;;5033539;28;20029;-54
2021/04/21 08:10:01;;;;;;;6.13;3.28;;;;;;;;;;5033579;28;20037;-50
2021/04/21 08:12:34;;;;;;;4.78;3.42;;;16.30;99.90;;;;;;5033853;28;20372;-53
2021/04/21 08:15:08;;;;;;;3.63;2.80;;;16.30;99.90;;;;;;5033630;28;20417;-50
2021/04/21 08:17:52;;;;;;;7.55;2.90;;;16.30;99.90;;;;;;4982381;28;20042;-46
2021/04/21 08:20:33;;;;;;;3.25;2.60;;;16.40;99.90;;;;;;5033751;28;20034;-51
2021/04/21 08:23:04;;;;;;;5.13;2.65;;;16.50;99.90;;;;;;5034892;28;20064;-51
2021/04/21 08:25:30;;;;;;;4.13;2.53;;;16.70;99.90;;;;;;5044449;28;20485;-47
2021/04/21 08:27:57;;;;;;;4.78;3.00;;;16.80;99.90;;;;;;5034033;28;20055;-50
2021/04/21 08:30:24;;;;;;;5.82;2.67;;;17.00;99.90;;;;;;5053810;28;20069;-51
2021/04/21 08:32:50;;;;;;;11.18;3.97;;;17.20;99.90;;;;;;5053227;28;20037;-51
2021/04/21 08:35:16;;;;;;;3.50;2.63;;;17.10;99.90;;;;;;5053259;28;20043;-49
2021/04/21 08:37:42;;;;;;;4.50;2.33;;;17.30;99.90;;;;;;5018192;28;20376;-51
2021/04/21 08:40:10;;;;;;;3.45;2.42;;;17.60;99.90;;;;;;5053343;28;20060;-48
2021/04/21 08:42:39;;;;;;;5.93;2.47;;;17.80;99.90;;;;;;5018093;28;20053;-50
2021/04/21 08:45:07;;;;;;;3.67;2.38;;;17.60;99.90;;;;;;5053137;28;20033;-45
2021/04/21 08:47:34;;;;;;;4.68;2.70;;;17.50;99.90;;;;;;5018334;28;20052;-47
2021/04/21 08:50:01;;;;;;;3.65;2.08;;;;;;;;;;5053080;28;20082;-47
2021/04/21 08:52:30;;;;;;;4.90;2.85;;;;;;;;;;5052753;28;20025;-49
2021/04/21 08:54:56;;;;;;;3.38;2.38;;;18.10;99.90;;;;;;5033987;28;20041;-48
2021/04/21 08:57:22;;;;;;;3.63;2.17;;;18.00;99.90;;;;;;5053092;28;20037;-51
2021/04/21 08:59:48;;;;;;;3.20;2.20;;;18.10;99.90;;;;;;5053022;28;20029;-50
2021/04/21 09:02:16;;;;;;;4.15;2.75;;;;;;;;;;5052880;28;20487;-47
2021/04/21 09:04:43;;;;;;;4.80;3.10;;;18.70;99.90;;;;;;5019285;28;20041;-48
2021/04/21 09:07:09;;;;;;;6.38;3.15;;;;;;;;;;5056463;28;20496;-49
2021/04/21 09:09:35;;;;;;;5.68;3.60;;;18.70;99.90;;;;;;5056924;28;20074;-50
2021/04/21 09:12:06;;;;;;;3.97;2.67;;;18.70;99.90;;;;;;5038152;28;20044;-47
2021/04/21 09:14:32;;;;;;;2.80;2.00;;;18.90;99.90;;;;;;5037465;28;20040;-50
2021/04/21 09:16:58;;;;;;;4.72;3.10;;;19.10;99.90;;;;;;5056373;28;20546;-44
2021/04/21 09:19:24;;;;;;;3.58;2.20;;;19.20;99.90;;;;;;5038166;28;20033;-49
2021/04/21 09:22:11;;;;;;;4.13;2.15;;;19.30;99.90;;;;;;5037787;28;20044;-51
2021/04/21 09:24:38;;;;;;;5.85;2.72;;;19.50;99.90;;;;;;5049696;28;20112;-49
2021/04/21 09:27:26;;;;;;;4.28;3.15;;;;;;;;;;4997174;28;20045;-47
2021/04/21 09:30:15;;;;;;;5.18;3.50;;;19.30;99.90;;;;;;4999204;28;20048;-46
2021/04/21 09:32:47;;;;;;;4.47;3.22;;;19.20;99.90;;;;;;4970111;28;20042;-47
2021/04/21 09:35:33;;;;;;;5.05;3.25;;;19.20;99.90;;;;;;4998127;28;20122;-50
2021/04/21 09:38:04;;;;;;;6.28;4.05;;;19.40;99.90;;;;;;4994783;28;20153;-49
2021/04/21 09:40:39;;;;;;;5.93;3.55;;;19.40;99.90;;;;;;4994811;28;20030;-44
2021/04/21 09:43:06;;;;;;;4.32;2.90;;;19.70;99.90;;;;;;4994447;28;20042;-51
2021/04/21 09:45:42;;;;;;;5.38;3.53;;;19.80;99.90;;;;;;4994836;28;20117;-47
2021/04/21 09:48:13;;;;;;;6.70;3.88;;;19.90;99.90;;;;;;4962130;28;20172;-52
2021/04/21 09:50:41;;;;;;;6.03;3.60;;;19.90;99.90;;;;;;5001433;28;20039;-45
2021/04/21 09:53:20;;;;;;;10.50;5.00;;;;;;;;;;4978007;28;20062;-50
2021/04/21 09:56:03;;;;;;;9.48;4.50;;;20.10;99.90;;;;;;4977947;28;20442;-49
2021/04/21 09:58:36;;;;;;;6.35;4.20;;;20.40;99.90;;;;;;4999126;28;20042;-46
2021/04/21 10:01:21;;;;;;;5.97;3.97;;;20.30;99.90;;;;;;5013576;28;20509;-50
2021/04/21 10:04:04;;;;;;;13.65;4.63;;;20.10;99.90;;;;;;5011826;28;20042;-50
2021/04/21 10:06:30;;;;;;;5.57;3.83;;;20.30;99.90;;;;;;5013854;28;20034;-48
2021/04/21 10:08:56;;;;;;;6.15;3.97;;;20.30;99.70;;;;;;5006164;28;20129;-50
2021/04/21 10:11:22;;;;;;;6.93;3.97;;;20.40;99.80;;;;;;5013523;28;20046;-47
2021/04/21 10:13:54;;;;;;;5.50;4.07;;;19.50;99.90;;;;;;5013165;28;20038;-50
2021/04/21 10:16:21;;;;;;;23.60;13.50;;;19.60;99.90;;;;;;4998370;28;20041;-49
2021/04/21 10:18:48;;;;;;;9.82;5.50;;;20.20;99.90;;;;;;4998385;28;20042;-47
2021/04/21 10:21:16;;;;;;;7.55;4.53;;;20.30;99.90;;;;;;4982240;28;20033;-47
2021/04/21 10:23:45;;;;;;;6.97;3.75;;;;;;;;;;4961574;28;20114;-49
2021/04/21 10:26:16;;;;;;;13.93;8.68;;;20.90;99.80;;;;;;4961218;28;20117;-47
2021/04/21 10:28:44;;;;;;;6.43;4.78;;;20.10;99.90;;;;;;4961124;28;20047;-48
2021/04/21 10:31:13;;;;;;;16.63;8.93;;;20.10;99.90;;;;;;5000849;28;20397;-51
2021/04/21 10:33:39;;;;;;;6.60;4.00;;;20.10;99.90;;;;;;4960668;28;20038;-50
2021/04/21 10:36:06;;;;;;;29.40;13.00;;;20.30;99.40;;;;;;4976898;28;20129;-50
2021/04/21 10:38:33;;;;;;;23.25;9.75;;;20.20;99.90;;;;;;4980455;28;20051;-51
2021/04/21 10:41:20;;;;;;;18.08;9.10;;;20.70;99.90;;;;;;5012475;28;20057;-49
2021/04/21 10:43:47;;;;;;;21.73;11.27;;;;;;;;;;4992907;28;20236;-52
2021/04/21 10:46:13;;;;;;;7.18;4.25;;;20.90;99.90;;;;;;4961969;28;20034;-46
2021/04/21 10:48:44;;;;;;;6.30;4.38;;;20.80;97.80;;;;;;4994330;28;20053;-48
2021/04/21 10:51:34;;;;;;;7.60;3.83;;;20.80;96.70;;;;;;4979610;28;20040;-44
2021/04/21 10:54:05;;;;;;;38.45;16.33;;;20.50;97.70;;;;;;5004256;28;20046;-47
2021/04/21 10:56:32;;;;;;;6.97;4.18;;;20.40;95.50;;;;;;5001989;28;20113;-49
2021/04/21 10:59:00;;;;;;;4.20;3.05;;;20.40;95.50;;;;;;5003581;28;20037;-50
2021/04/21 11:01:29;;;;;;;5.40;3.45;;;;;;;;;;5008044;28;20040;-46
2021/04/21 11:03:55;;;;;;;4.05;2.97;;;21.10;94.60;;;;;;5021002;28;20090;-50
2021/04/21 11:06:39;;;;;;;6.93;4.18;;;21.80;94.30;;;;;;5019784;28;20037;-50
2021/04/21 11:09:09;;;;;;;4.28;3.22;;;22.00;94.80;;;;;;5014079;28;20070;-47
2021/04/21 11:11:36;;;;;;;7.35;3.80;;;22.30;93.00;;;;;;5009889;28;20065;-47
2021/04/21 11:14:02;;;;;;;5.53;3.47;;;22.00;92.60;;;;;;5016216;28;20037;-49
2021/04/21 11:16:31;;;;;;;8.27;3.90;;;21.80;92.50;;;;;;5005778;28;20198;-48
2021/04/21 11:19:19;;;;;;;5.50;3.67;;;22.30;93.80;;;;;;5016236;28;20138;-50
2021/04/21 11:22:08;;;;;;;5.80;4.28;;;22.50;92.80;;;;;;5052176;28;20040;-45
2021/04/21 11:24:35;;;;;;;5.20;3.50;;;21.70;92.10;;;;;;5034467;28;20030;-51
2021/04/21 11:27:01;;;;;;;10.85;6.05;;;22.30;91.70;;;;;;5034211;28;20673;-50
2021/04/21 11:29:27;;;;;;;6.47;3.78;;;21.90;91.50;;;;;;5033302;28;20033;-49
2021/04/21 11:31:53;;;;;;;5.03;3.58;;;22.30;90.00;;;;;;5040152;28;20558;-47
2021/04/21 11:34:21;;;;;;;14.27;6.05;;;22.30;91.50;;;;;;5053687;28;20060;-49
2021/04/21 11:36:57;;;;;;;4.93;3.35;;;22.50;92.80;;;;;;5053444;28;20127;-49
2021/04/21 11:39:48;;;;;;;3.92;3.20;;;22.00;89.20;;;;;;5054537;28;20032;-51
2021/04/21 11:42:32;;;;;;;4.67;3.13;;;22.00;90.10;;;;;;5053730;28;20047;-51
2021/04/21 11:44:58;;;;;;;6.20;3.83;;;22.10;90.00;;;;;;5002450;28;20270;-47
2021/04/21 11:47:36;;;;;;;9.15;4.88;;;22.00;88.10;;;;;;5053917;28;20063;-47
2021/04/21 11:50:06;;;;;;;37.05;13.95;;;22.40;89.30;;;;;;5044539;28;20035;-46
2021/04/21 11:52:43;;;;;;;13.00;5.25;;;22.30;85.70;;;;;;5049407;28;20033;-47
2021/04/21 11:55:10;;;;;;;6.03;4.00;;;21.70;85.50;;;;;;5053613;28;20119;-46
2021/04/21 11:57:37;;;;;;;4.78;3.50;;;22.10;84.70;;;;;;5054006;28;20487;-46
2021/04/21 12:00:07;;;;;;;7.15;3.70;;;22.40;83.70;;;;;;5053843;28;20033;-47
2021/04/21 12:02:34;;;;;;;5.75;4.15;;;21.80;86.80;;;;;;4985692;28;20040;-47
2021/04/21 12:05:01;;;;;;;21.23;8.73;;;22.20;85.80;;;;;;5018525;28;20033;-46
2021/04/21 12:07:27;;;;;;;16.98;6.75;;;21.50;84.90;;;;;;5018629;28;20086;-46
2021/04/21 12:09:53;;;;;;;49.35;16.17;;;21.60;86.60;;;;;;5053811;28;20029;-48
2021/04/21 12:12:25;;;;;;;9.68;5.30;;;22.00;88.60;;;;;;5035132;28;20128;-47
2021/04/21 12:15:05;;;;;;;9.50;4.78;;;22.20;90.40;;;;;;5018625;28;20033;-46
2021/04/21 12:17:31;;;;;;;7.47;4.63;;;22.80;88.60;;;;;;5001937;28;20484;-46
2021/04/21 12:19:59;;;;;;;4.57;3.00;;;23.00;87.00;;;;;;5053630;28;20032;-46
2021/04/21 12:22:41;;;;;;;4.03;3.10;;;22.80;80.60;;;;;;5018433;28;20652;-47
2021/04/21 12:25:08;;;;;;;;;;;22.90;82.20;;;;;;5050607;28;20029;-46
2021/04/21 12:27:34;;;;;;;4.05;3.10;;;23.10;79.50;;;;;;5015226;28;20020;-47
2021/04/21 12:30:18;;;;;;;4.57;3.20;;;23.10;80.00;;;;;;5050067;28;20033;-47
2021/04/21 12:32:44;;;;;;;3.50;2.63;;;22.60;76.30;;;;;;5048084;28;20127;-47
2021/04/21 12:35:12;;;;;;;6.90;3.65;;;23.00;76.00;;;;;;5052911;28;20047;-47
2021/04/21 12:37:37;;;;;;;7.47;4.70;;;23.10;76.40;;;;;;5053225;28;20049;-47
2021/04/21 12:40:22;;;;;;;5.20;3.30;;;22.40;75.70;;;;;;5053022;28;20100;-47
2021/04/21 12:42:49;;;;;;;4.50;3.25;;;22.40;75.40;;;;;;4986173;28;20032;-48
2021/04/21 12:45:30;;;;;;;42.58;17.00;;;22.40;75.30;;;;;;5018058;28;20044;-46
2021/04/21 12:47:56;;;;;;;5.53;3.17;;;22.10;76.30;;;;;;5053168;28;20037;-47
2021/04/21 12:50:32;;;;;;;22.27;8.07;;;22.00;77.00;;;;;;5052931;28;20094;-47
2021/04/21 12:53:13;;;;;;;8.80;5.00;;;21.40;76.40;;;;;;5053018;28;20025;-48
2021/04/21 12:55:39;;;;;;;11.52;3.72;;;21.40;79.50;;;;;;5001587;28;20547;-46
2021/04/21 12:58:05;;;;;;;11.68;5.38;;;21.30;78.70;;;;;;5017648;28;20033;-47
2021/04/21 13:00:31;;;;;;;12.18;5.55;;;20.90;77.90;;;;;;5051840;28;20082;-47
2021/04/21 13:02:57;;;;;;;5.90;3.65;;;20.70;79.60;;;;;;4973420;28;20453;-47
2021/04/21 13:05:58;;;;;;;36.33;11.43;;;20.40;81.50;;;;;;4973687;28;20042;-47
2021/04/21 13:08:29;;;;;;;59.05;18.33;;;20.80;83.50;;;;;;4951378;29;20043;-47
2021/04/21 13:10:57;;;;;;;31.45;8.48;;;20.90;84.90;;;;;;4951383;29;20451;-47
2021/04/21 13:13:23;;;;;;;21.40;8.30;;;20.20;83.30;;;;;;4948400;29;20035;-47
2021/04/21 13:15:49;;;;;;;22.05;7.45;;;20.00;84.30;;;;;;4935225;29;20040;-48
2021/04/21 13:18:15;;;;;;;27.10;8.65;;;19.80;87.20;;;;;;4935050;29;20047;-47
2021/04/21 13:20:51;;;;;;;62.67;17.20;;;19.70;85.60;;;;;;4951336;29;20534;-47
2021/04/21 13:23:23;;;;;;;28.63;8.85;;;19.70;87.80;;;;;;4951127;29;20494;-47
2021/04/21 13:25:56;;;;;;;;;;;19.50;84.90;;;;;;4951523;29;20110;-46
2021/04/21 13:28:29;;;;;;;9.70;3.22;;;19.50;86.30;;;;;;4950820;29;19920;-48
2021/04/21 13:31:24;;;;;;;5.57;3.80;;;19.80;83.60;;;;;;4951240;29;20031;-47
2021/04/21 13:33:50;;;;;;;21.05;8.95;;;19.90;82.70;;;;;;4952247;28;20419;-46
2021/04/21 13:36:16;;;;;;;4.15;2.75;;;20.20;84.10;;;;;;4969975;28;20041;-46
2021/04/21 13:38:43;;;;;;;5.53;3.35;;;20.00;82.20;;;;;;4970170;28;20058;-46
2021/04/21 13:41:11;;;;;;;4.38;3.13;;;20.10;84.60;;;;;;4954111;28;20057;-48